Time;durP1;ratioP1;P1;durP2;ratioP2;P2;SDS_P1;SDS_P2;PMS_P1;PMS_P2;Temp;Humidity;BMP_temperature;BMP_pressure;BME280_temperature;BME280_humidity;BME280_pressure;Samples;Min_cycle;Max_cycle;Signal;HPM_P1;HPM_P2
2021/10/07 00:02:05;;;;;;;18.25;4.43;;;8.40;99.90;;;;;;4997990;28;20063;-88
2021/10/07 00:04:53;;;;;;;7.20;4.40;;;8.40;99.90;;;;;;5012772;28;20134;-88
2021/10/07 00:07:43;;;;;;;8.95;4.32;;;8.40;99.90;;;;;;5019569;28;20187;-87
2021/10/07 00:10:35;;;;;;;9.13;4.32;;;8.40;99.90;;;;;;5015656;28;20041;-88
2021/10/07 00:13:24;;;;;;;12.73;3.88;;;8.40;99.90;;;;;;5012351;28;20094;-87
2021/10/07 00:16:12;;;;;;;5.25;3.30;;;8.40;99.90;;;;;;5024181;28;20045;-89
2021/10/07 00:19:00;;;;;;;5.30;3.60;;;8.40;99.90;;;;;;5025028;28;20045;-90
2021/10/07 00:21:49;;;;;;;8.82;3.85;;;8.40;99.90;;;;;;5024385;28;20045;-89
2021/10/07 00:24:36;;;;;;;9.63;3.92;;;8.30;99.90;;;;;;5009379;28;20049;-89
2021/10/07 00:27:24;;;;;;;10.65;4.10;;;8.40;99.90;;;;;;5051063;28;20124;-88
2021/10/07 00:30:20;;;;;;;5.53;4.07;;;8.40;99.90;;;;;;5033276;28;20059;-89
2021/10/07 00:33:14;;;;;;;11.05;4.53;;;8.40;99.90;;;;;;5059554;28;20057;-90
2021/10/07 00:39:15;;;;;;;6.93;3.97;;;8.40;99.90;;;;;;5040285;28;20049;-88
2021/10/07 00:42:04;;;;;;;6.20;3.90;;;8.40;99.90;;;;;;5044677;28;20160;-88
2021/10/07 00:44:51;;;;;;;7.80;3.67;;;8.40;99.90;;;;;;5036723;28;20049;-89
2021/10/07 00:47:38;;;;;;;7.95;3.80;;;8.40;99.90;;;;;;5015381;28;20056;-89
2021/10/07 00:50:26;;;;;;;11.68;4.13;;;8.40;99.90;;;;;;5050770;28;20128;-91
2021/10/07 00:53:16;;;;;;;10.18;4.53;;;8.40;99.90;;;;;;5026099;28;20060;-88
2021/10/07 00:56:05;;;;;;;7.90;4.32;;;8.40;99.90;;;;;;5043282;28;20089;-87
2021/10/07 00:58:52;;;;;;;7.97;4.18;;;8.40;99.90;;;;;;5021595;28;20120;-87
2021/10/07 01:01:40;;;;;;;6.65;5.00;;;8.40;99.90;;;;;;5022463;28;20049;-86
2021/10/07 01:04:28;;;;;;;10.25;4.75;;;8.40;99.90;;;;;;5037169;28;20059;-89
2021/10/07 01:07:16;;;;;;;11.40;4.55;;;8.40;99.90;;;;;;5026881;28;20059;-87
2021/10/07 01:10:04;;;;;;;5.70;4.50;;;8.40;99.90;;;;;;5039043;28;20053;-86
2021/10/07 01:12:55;;;;;;;11.85;4.47;;;8.40;99.90;;;;;;5040867;28;20050;-87
2021/10/07 01:15:44;;;;;;;6.05;4.45;;;8.40;99.90;;;;;;5025190;28;20045;-87
2021/10/07 01:18:31;;;;;;;8.80;4.35;;;8.40;99.90;;;;;;5012325;28;20041;-89
2021/10/07 01:21:19;;;;;;;6.88;4.07;;;8.40;99.90;;;;;;5022198;28;20466;-90
2021/10/07 01:24:07;;;;;;;7.95;4.30;;;8.40;99.90;;;;;;5046635;28;20458;-90
2021/10/07 01:26:54;;;;;;;8.02;4.47;;;8.40;99.90;;;;;;5020966;28;20056;-89
2021/10/07 01:29:42;;;;;;;10.82;4.07;;;8.40;99.90;;;;;;5019342;28;20045;-89
2021/10/07 01:32:34;;;;;;;6.43;4.30;;;8.40;99.90;;;;;;5039333;28;20040;-87
2021/10/07 01:35:22;;;;;;;7.93;4.63;;;8.40;99.90;;;;;;5035094;28;20064;-89
2021/10/07 01:38:09;;;;;;;8.68;4.68;;;8.40;99.90;;;;;;5024497;28;20411;-89
2021/10/07 01:40:56;;;;;;;6.70;4.88;;;8.40;99.90;;;;;;5022374;28;20048;-88
2021/10/07 01:43:44;;;;;;;11.68;5.63;;;8.40;99.90;;;;;;5028113;28;20064;-88
2021/10/07 01:46:34;;;;;;;8.98;5.57;;;8.40;99.90;;;;;;5027827;28;20091;-88
2021/10/07 01:49:22;;;;;;;9.32;4.50;;;8.40;99.90;;;;;;5024363;28;20216;-87
2021/10/07 01:52:10;;;;;;;12.15;6.10;;;8.40;99.90;;;;;;5037292;28;20057;-89
2021/10/07 01:54:58;;;;;;;9.65;5.75;;;8.50;99.90;;;;;;5034066;28;20061;-89
2021/10/07 01:57:45;;;;;;;13.68;6.05;;;8.40;99.90;;;;;;5029531;28;20510;-89
2021/10/07 02:00:32;;;;;;;12.48;5.90;;;8.40;99.90;;;;;;5023975;28;20528;-87
2021/10/07 02:03:19;;;;;;;8.43;5.28;;;8.50;99.90;;;;;;5006019;28;20037;-88
2021/10/07 02:06:07;;;;;;;9.18;5.00;;;8.50;99.90;;;;;;4999636;28;20057;-91
2021/10/07 02:08:55;;;;;;;8.65;5.10;;;8.50;99.90;;;;;;5005555;28;20077;-89
2021/10/07 02:11:43;;;;;;;10.43;5.78;;;8.40;99.90;;;;;;5017262;28;20049;-90
2021/10/07 02:14:31;;;;;;;8.88;5.30;;;8.40;99.90;;;;;;4999181;28;20068;-88
2021/10/07 02:17:19;;;;;;;9.27;6.00;;;8.40;99.90;;;;;;5019919;28;20465;-88
2021/10/07 02:20:09;;;;;;;9.50;6.07;;;8.40;99.90;;;;;;5015012;28;20037;-86
2021/10/07 02:22:57;;;;;;;12.02;6.57;;;8.40;99.90;;;;;;5042704;28;20099;-88
2021/10/07 02:25:46;;;;;;;12.32;6.70;;;8.40;99.90;;;;;;5040463;28;20063;-88
2021/10/07 02:28:36;;;;;;;10.52;6.35;;;8.30;99.90;;;;;;5032534;28;20362;-90
2021/10/07 02:31:24;;;;;;;15.65;6.75;;;8.30;99.90;;;;;;4998958;28;20056;-89
2021/10/07 02:34:12;;;;;;;18.45;6.80;;;8.40;99.90;;;;;;5020746;28;20050;-89
2021/10/07 02:36:59;;;;;;;9.93;6.32;;;8.30;99.90;;;;;;5028411;28;20041;-88
2021/10/07 02:39:47;;;;;;;12.23;6.15;;;8.30;99.90;;;;;;5030558;28;20041;-90
2021/10/07 02:42:34;;;;;;;9.30;6.22;;;8.30;99.90;;;;;;5016054;28;20049;-89
2021/10/07 02:45:23;;;;;;;12.07;6.28;;;8.30;99.90;;;;;;5052118;28;20130;-86
2021/10/07 02:48:11;;;;;;;8.75;6.07;;;8.30;99.90;;;;;;5038813;28;20057;-88
2021/10/07 02:50:58;;;;;;;9.07;5.97;;;8.30;99.90;;;;;;4999826;28;20124;-87
2021/10/07 02:53:48;;;;;;;12.43;6.07;;;8.30;99.90;;;;;;5011958;28;20045;-91
2021/10/07 02:56:36;;;;;;;9.02;5.57;;;8.40;99.90;;;;;;5019868;28;20044;-89
2021/10/07 02:59:23;;;;;;;9.38;6.13;;;8.40;99.90;;;;;;5007423;28;20061;-87
2021/10/07 03:02:11;;;;;;;7.45;5.07;;;8.40;99.90;;;;;;5031435;28;20042;-88
2021/10/07 03:04:58;;;;;;;10.85;5.53;;;8.40;99.90;;;;;;5019052;28;20522;-90
2021/10/07 03:07:47;;;;;;;11.23;6.00;;;8.40;99.90;;;;;;5015634;28;20442;-88
2021/10/07 03:10:35;;;;;;;10.82;5.53;;;8.40;99.90;;;;;;5025748;28;20056;-90
2021/10/07 03:13:25;;;;;;;9.30;4.85;;;8.30;99.90;;;;;;5017404;28;20105;-89
2021/10/07 03:16:13;;;;;;;11.23;5.80;;;8.40;99.90;;;;;;5050147;28;20065;-88
2021/10/07 03:19:38;;;;;;;10.70;5.85;;;8.40;99.90;;;;;;5013972;28;20124;-89
2021/10/07 03:22:48;;;;;;;10.10;6.05;;;8.40;99.90;;;;;;4984180;28;20137;-88
2021/10/07 03:25:35;;;;;;;11.60;6.40;;;8.30;99.90;;;;;;4978235;28;20050;-88
2021/10/07 03:28:59;;;;;;;12.68;6.50;;;8.30;99.90;;;;;;4980565;28;20077;-91
2021/10/07 03:31:47;;;;;;;10.20;5.75;;;8.30;99.90;;;;;;4998097;28;20054;-90
2021/10/07 03:34:34;;;;;;;11.10;5.50;;;8.30;99.90;;;;;;5004701;28;20139;-89
2021/10/07 03:37:22;;;;;;;10.52;5.80;;;8.30;99.90;;;;;;5007600;28;20054;-89
2021/10/07 03:40:10;;;;;;;11.35;6.20;;;8.30;99.90;;;;;;4992803;28;20062;-88
2021/10/07 03:42:58;;;;;;;11.38;6.38;;;8.30;99.90;;;;;;5009373;28;20064;-88
2021/10/07 03:45:46;;;;;;;11.27;6.10;;;8.30;99.90;;;;;;5000392;28;20120;-88
2021/10/07 03:48:33;;;;;;;12.80;6.40;;;8.30;99.90;;;;;;5026382;28;20049;-89
2021/10/07 03:51:20;;;;;;;10.63;7.15;;;8.20;99.90;;;;;;5002273;28;20052;-88
2021/10/07 03:54:08;;;;;;;14.27;6.50;;;8.30;99.90;;;;;;4988240;28;20416;-90
2021/10/07 03:56:55;;;;;;;10.88;6.07;;;8.30;99.90;;;;;;5020654;28;20046;-87
2021/10/07 03:59:44;;;;;;;10.80;6.05;;;8.30;99.90;;;;;;4991502;28;20188;-89
2021/10/07 04:02:32;;;;;;;11.98;6.25;;;8.30;99.90;;;;;;5016969;28;20049;-89
2021/10/07 04:05:25;;;;;;;11.35;6.10;;;8.30;99.90;;;;;;5009454;28;20311;-90
2021/10/07 04:08:13;;;;;;;10.77;6.78;;;8.30;99.90;;;;;;5004456;28;20107;-89
2021/10/07 04:11:01;;;;;;;8.32;6.45;;;8.30;99.90;;;;;;5017333;28;20053;-89
2021/10/07 04:13:48;;;;;;;9.88;6.15;;;8.30;99.90;;;;;;5012482;28;20051;-88
2021/10/07 04:16:38;;;;;;;12.55;7.07;;;8.20;99.90;;;;;;5010845;28;20051;-88
2021/10/07 04:19:26;;;;;;;13.93;7.43;;;8.20;99.90;;;;;;5013927;28;20057;-88
2021/10/07 04:22:13;;;;;;;9.73;6.28;;;8.20;99.90;;;;;;5018361;28;20088;-89
2021/10/07 04:25:01;;;;;;;8.90;5.82;;;8.20;99.90;;;;;;5019653;28;20516;-87
2021/10/07 04:27:55;;;;;;;11.23;6.30;;;8.20;99.90;;;;;;5017221;28;20076;-88
2021/10/07 04:30:43;;;;;;;7.75;6.07;;;8.20;99.90;;;;;;5007619;28;20069;-88
2021/10/07 04:33:39;;;;;;;10.38;5.75;;;8.20;99.90;;;;;;5014275;28;20060;-87
2021/10/07 04:36:26;;;;;;;;;;;8.20;99.90;;;;;;5000574;28;20038;-89
2021/10/07 04:39:14;;;;;;;10.70;5.88;;;8.20;99.90;;;;;;5024051;28;20249;-86
2021/10/07 04:42:13;;;;;;;13.05;6.32;;;8.20;99.90;;;;;;5015715;28;20082;-86
2021/10/07 04:57:47;;;;;;;9.38;5.03;;;8.40;99.90;;;;;;5009588;28;20029;-83
2021/10/07 05:01:19;;;;;;;8.10;4.90;;;8.40;99.90;;;;;;5004635;28;20053;-85
2021/10/07 05:08:40;;;;;;;9.30;4.95;;;8.40;99.90;;;;;;4964145;28;20403;-87
2021/10/07 05:11:29;;;;;;;15.13;6.10;;;8.40;99.90;;;;;;4954501;28;20201;-85
2021/10/07 05:14:16;;;;;;;5.25;4.75;;;8.40;99.90;;;;;;4962976;28;20097;-90
2021/10/07 05:17:06;;;;;;;6.43;5.15;;;8.30;99.90;;;;;;4973572;28;20154;-92
2021/10/07 05:20:19;;;;;;;7.60;6.05;;;8.30;99.90;;;;;;4979952;28;20055;-88
2021/10/07 05:23:39;;;;;;;7.50;6.25;;;8.20;99.90;;;;;;4974506;28;20047;-90
2021/10/07 05:27:24;;;;;;;9.88;5.55;;;8.20;99.90;;;;;;4918761;28;20520;-91
2021/10/07 05:39:42;;;;;;;;;;;;;;;;;;;;;
2021/10/07 05:47:52;;;;;;;8.65;7.00;;;8.20;99.90;;;;;;4882382;29;20045;-88
2021/10/07 05:51:01;;;;;;;9.70;5.72;;;8.20;99.90;;;;;;4916192;28;20469;-91
2021/10/07 05:54:04;;;;;;;;;;;;;;;;;;;;;
2021/10/07 05:58:12;;;;;;;;;;;;;;;;;;;;;
2021/10/07 06:02:06;;;;;;;;;;;;;;;;;;;;;
2021/10/07 06:13:45;;;;;;;13.20;9.25;;;8.20;99.90;;;;;;5054707;28;20041;-89
2021/10/07 06:16:39;;;;;;;14.77;9.63;;;8.20;99.90;;;;;;5025908;28;20073;-89
2021/10/07 06:23:55;;;;;;;14.38;8.30;;;8.30;99.90;;;;;;4901693;29;20158;-88
2021/10/07 06:26:59;;;;;;;12.52;8.10;;;8.50;99.90;;;;;;4953360;28;20053;-85
2021/10/07 06:29:46;;;;;;;20.08;9.27;;;8.50;99.90;;;;;;5025062;28;20056;-90
2021/10/07 06:32:37;;;;;;;15.10;8.52;;;8.50;99.90;;;;;;5004810;28;20058;-88
2021/10/07 06:35:25;;;;;;;12.68;9.68;;;8.60;99.90;;;;;;5025475;28;20045;-86
2021/10/07 06:38:17;;;;;;;15.93;9.43;;;8.60;99.90;;;;;;5031212;28;20045;-87
2021/10/07 06:41:04;;;;;;;12.23;9.35;;;8.60;99.90;;;;;;5019426;28;20055;-86
2021/10/07 06:43:51;;;;;;;15.27;8.95;;;8.70;99.90;;;;;;5015974;28;20042;-87
2021/10/07 06:46:39;;;;;;;10.80;8.63;;;8.80;99.90;;;;;;5019942;28;20107;-87
2021/10/07 06:49:26;;;;;;;13.48;8.02;;;8.80;99.90;;;;;;5022646;28;20052;-86
2021/10/07 06:52:15;;;;;;;11.32;7.63;;;8.90;99.90;;;;;;5030075;28;20100;-88
2021/10/07 06:55:06;;;;;;;10.30;7.47;;;8.90;99.90;;;;;;5051017;28;20130;-87
2021/10/07 06:57:56;;;;;;;10.73;7.22;;;9.00;99.90;;;;;;5036278;28;20045;-88
2021/10/07 07:00:45;;;;;;;9.32;6.72;;;9.00;99.90;;;;;;5006330;28;20393;-86
2021/10/07 07:03:32;;;;;;;11.57;7.15;;;9.10;99.90;;;;;;5022984;28;20037;-85
2021/10/07 07:06:20;;;;;;;9.68;7.00;;;9.20;99.90;;;;;;5021055;28;20037;-84
2021/10/07 07:09:08;;;;;;;8.55;5.97;;;9.20;99.90;;;;;;5020745;28;20045;-85
2021/10/07 07:11:55;;;;;;;10.10;6.50;;;9.20;99.90;;;;;;5036128;28;20455;-83
2021/10/07 07:14:42;;;;;;;6.82;5.47;;;9.30;99.90;;;;;;5016505;28;20057;-84
2021/10/07 07:17:29;;;;;;;8.13;5.13;;;9.50;99.90;;;;;;5028729;28;20041;-85
2021/10/07 07:20:17;;;;;;;6.20;4.78;;;9.70;99.90;;;;;;5018954;28;20065;-86
2021/10/07 07:23:11;;;;;;;7.03;4.70;;;9.80;99.90;;;;;;5020425;28;20056;-84
2021/10/07 07:25:58;;;;;;;8.95;4.80;;;10.10;99.90;;;;;;5005154;28;20114;-84
2021/10/07 07:28:45;;;;;;;7.45;5.22;;;10.20;99.90;;;;;;5031446;28;20045;-84
2021/10/07 07:31:33;;;;;;;7.90;4.57;;;10.20;99.90;;;;;;5021088;28;20124;-84
2021/10/07 07:34:20;;;;;;;8.18;5.20;;;10.20;99.90;;;;;;5019622;28;20435;-85
2021/10/07 07:37:08;;;;;;;8.65;5.80;;;10.30;99.90;;;;;;5033430;28;20045;-85
2021/10/07 07:39:58;;;;;;;8.60;6.15;;;10.30;99.90;;;;;;5023342;28;20045;-86
2021/10/07 07:42:45;;;;;;;12.40;6.72;;;10.20;99.90;;;;;;5033446;28;20107;-86
2021/10/07 07:45:37;;;;;;;11.48;7.25;;;10.30;99.90;;;;;;5017192;28;20151;-86
2021/10/07 07:48:29;;;;;;;14.25;7.68;;;10.30;99.90;;;;;;5006243;28;20045;-84
2021/10/07 07:51:16;;;;;;;10.65;8.02;;;10.20;99.90;;;;;;5017694;28;20041;-86
2021/10/07 07:54:06;;;;;;;11.15;8.50;;;10.30;99.90;;;;;;5034797;28;20056;-87
2021/10/07 07:56:56;;;;;;;11.73;8.82;;;10.40;99.90;;;;;;5034449;28;20057;-86
2021/10/07 07:59:43;;;;;;;11.93;7.30;;;10.60;99.90;;;;;;5032850;28;20080;-87
2021/10/07 08:02:30;;;;;;;9.27;7.30;;;10.80;99.90;;;;;;5032916;28;20095;-87
2021/10/07 08:05:18;;;;;;;14.07;7.47;;;11.00;99.90;;;;;;5030489;28;20544;-85
2021/10/07 08:08:06;;;;;;;10.77;7.63;;;11.10;99.90;;;;;;5015421;28;20041;-85
2021/10/07 08:10:53;;;;;;;11.63;7.53;;;11.40;99.90;;;;;;5026278;28;20045;-84
2021/10/07 08:13:41;;;;;;;12.43;7.40;;;11.50;99.90;;;;;;5030305;28;20049;-85
2021/10/07 08:16:29;;;;;;;18.58;8.38;;;11.70;99.90;;;;;;5015930;28;20041;-86
2021/10/07 08:19:18;;;;;;;16.23;7.75;;;11.80;99.90;;;;;;5029271;28;20044;-84
2021/10/07 08:22:06;;;;;;;13.85;7.47;;;11.80;99.90;;;;;;5027966;28;20103;-85
2021/10/07 08:24:56;;;;;;;15.95;7.68;;;12.00;99.90;;;;;;5009299;28;20058;-84
2021/10/07 08:27:44;;;;;;;14.52;7.80;;;12.20;99.90;;;;;;5013311;28;20081;-85
2021/10/07 08:30:32;;;;;;;11.95;6.82;;;12.30;99.90;;;;;;5032418;28;20698;-84
2021/10/07 08:33:22;;;;;;;13.38;6.82;;;12.50;99.90;;;;;;5032887;28;20128;-87
2021/10/07 08:36:09;;;;;;;10.13;7.15;;;12.90;99.90;;;;;;5029064;28;20037;-86
2021/10/07 08:38:59;;;;;;;12.23;7.68;;;12.60;99.90;;;;;;5018502;28;20080;-86
2021/10/07 08:41:48;;;;;;;8.60;6.55;;;12.70;99.90;;;;;;5021956;28;20093;-86
2021/10/07 08:44:35;;;;;;;8.82;6.50;;;12.60;99.90;;;;;;5033879;28;20096;-87
2021/10/07 08:47:22;;;;;;;8.23;5.68;;;12.60;99.90;;;;;;5028848;28;20049;-87
2021/10/07 08:50:12;;;;;;;11.65;6.55;;;12.70;99.90;;;;;;5019701;28;20045;-86
2021/10/07 08:52:59;;;;;;;10.48;6.03;;;12.60;99.90;;;;;;5023173;28;20068;-87
2021/10/07 08:55:48;;;;;;;10.50;5.57;;;12.60;99.90;;;;;;5030603;28;20049;-86
2021/10/07 08:58:44;;;;;;;14.85;6.55;;;12.70;99.90;;;;;;5033318;28;20044;-84
2021/10/07 09:01:37;;;;;;;9.52;5.88;;;13.00;99.90;;;;;;5007864;28;20123;-85
2021/10/07 09:04:29;;;;;;;10.40;6.07;;;13.20;99.90;;;;;;5033603;28;20053;-84
2021/10/07 09:07:16;;;;;;;12.13;5.95;;;13.30;99.90;;;;;;5028473;28;20111;-85
2021/10/07 09:10:04;;;;;;;14.68;5.57;;;13.40;99.90;;;;;;5001011;28;20053;-86
2021/10/07 09:13:15;;;;;;;10.00;5.50;;;13.80;99.90;;;;;;5020618;28;20049;-85
2021/10/07 09:16:05;;;;;;;6.45;3.95;;;14.10;99.90;;;;;;5013490;28;20057;-82
2021/10/07 09:18:52;;;;;;;12.45;4.93;;;14.10;99.90;;;;;;5019237;28;20124;-82
2021/10/07 09:21:41;;;;;;;8.80;4.55;;;14.10;99.90;;;;;;5029083;28;20139;-82
2021/10/07 09:24:34;;;;;;;9.77;6.70;;;14.10;99.90;;;;;;5024954;28;20123;-86
2021/10/07 09:27:30;;;;;;;7.18;5.63;;;13.90;99.90;;;;;;5026089;28;20048;-85
2021/10/07 09:30:21;;;;;;;6.82;5.03;;;13.70;99.90;;;;;;5026257;28;20046;-86
2021/10/07 09:33:08;;;;;;;6.38;4.00;;;13.70;99.90;;;;;;5014776;28;20056;-83
2021/10/07 09:36:16;;;;;;;7.82;4.15;;;13.70;99.90;;;;;;5031520;28;20042;-85
2021/10/07 09:39:04;;;;;;;4.75;4.00;;;13.50;99.90;;;;;;5010033;28;20060;-84
2021/10/07 09:41:55;;;;;;;7.85;4.55;;;13.60;99.90;;;;;;5030096;28;20037;-83
2021/10/07 09:44:59;;;;;;;6.65;4.05;;;13.50;99.90;;;;;;5027424;28;20115;-82
2021/10/07 09:47:50;;;;;;;6.35;3.97;;;13.70;99.90;;;;;;5030149;28;20053;-82
2021/10/07 09:50:39;;;;;;;6.93;3.50;;;14.00;99.90;;;;;;5032257;28;20060;-86
2021/10/07 09:53:26;;;;;;;4.63;3.55;;;14.20;99.90;;;;;;5030312;28;20132;-84
2021/10/07 09:56:34;;;;;;;6.78;4.22;;;14.40;99.90;;;;;;5013834;28;20045;-83
2021/10/07 09:59:32;;;;;;;6.25;4.25;;;14.10;99.90;;;;;;5019983;28;20134;-82
2021/10/07 10:02:22;;;;;;;7.40;2.90;;;14.10;99.90;;;;;;5030307;28;20104;-82
2021/10/07 10:05:10;;;;;;;5.35;2.85;;;14.20;99.90;;;;;;5031060;28;20144;-83
2021/10/07 10:08:05;;;;;;;3.63;2.63;;;14.30;99.90;;;;;;5033076;28;20466;-83
2021/10/07 10:11:31;;;;;;;5.60;3.20;;;14.20;99.90;;;;;;4978325;28;20097;-83
2021/10/07 10:14:37;;;;;;;6.03;2.88;;;14.20;99.90;;;;;;5019284;28;20054;-82
2021/10/07 10:17:27;;;;;;;4.75;3.40;;;14.00;99.90;;;;;;5018772;28;20461;-82
2021/10/07 10:20:27;;;;;;;11.15;4.47;;;14.10;99.90;;;;;;5021079;28;20861;-83
2021/10/07 10:23:24;;;;;;;6.68;4.20;;;14.00;99.90;;;;;;5028582;28;20069;-82
2021/10/07 10:26:13;;;;;;;7.28;4.13;;;13.90;99.90;;;;;;5029122;28;20103;-82
2021/10/07 10:29:00;;;;;;;8.07;3.90;;;13.80;99.90;;;;;;5032081;28;20077;-82
2021/10/07 10:31:51;;;;;;;4.20;3.78;;;14.00;99.90;;;;;;5028731;28;20126;-83
2021/10/07 10:34:42;;;;;;;7.20;4.03;;;13.80;99.90;;;;;;5040917;28;20138;-83
2021/10/07 10:37:31;;;;;;;10.80;4.45;;;13.80;99.90;;;;;;5032016;28;20092;-83
2021/10/07 10:40:21;;;;;;;6.22;4.35;;;13.60;99.90;;;;;;5032426;28;20370;-83
2021/10/07 10:43:17;;;;;;;6.65;4.47;;;13.70;99.90;;;;;;5029742;28;20038;-83
2021/10/07 10:46:04;;;;;;;8.60;5.43;;;13.70;99.90;;;;;;5030468;28;20752;-83
2021/10/07 10:48:52;;;;;;;7.72;5.15;;;13.70;99.90;;;;;;5032908;28;20124;-81
2021/10/07 10:51:39;;;;;;;9.32;5.55;;;13.60;99.90;;;;;;5028023;28;20088;-82
2021/10/07 10:54:30;;;;;;;7.75;4.68;;;13.60;99.90;;;;;;5028183;28;20166;-81
2021/10/07 10:57:34;;;;;;;7.32;4.68;;;13.50;99.90;;;;;;5031564;28;20053;-78
2021/10/07 11:00:32;;;;;;;9.95;5.07;;;13.40;99.90;;;;;;5034134;28;20042;-82
2021/10/07 11:03:26;;;;;;;9.00;4.97;;;13.50;99.90;;;;;;5030081;28;20045;-83
2021/10/07 11:06:14;;;;;;;5.88;4.18;;;13.50;99.90;;;;;;5017502;28;20041;-83
2021/10/07 11:09:04;;;;;;;11.25;5.13;;;13.60;99.90;;;;;;5021578;28;20052;-82
2021/10/07 11:11:51;;;;;;;7.88;5.43;;;13.60;99.90;;;;;;5020826;28;20096;-82
2021/10/07 11:14:40;;;;;;;12.40;5.82;;;13.60;99.90;;;;;;5032319;28;20049;-82
2021/10/07 11:17:31;;;;;;;7.70;5.57;;;14.00;99.90;;;;;;5016969;28;20128;-83
2021/10/07 11:20:30;;;;;;;10.77;6.15;;;14.20;99.90;;;;;;5032099;28;20191;-83
2021/10/07 11:23:18;;;;;;;12.02;5.40;;;14.50;99.90;;;;;;5030962;28;20123;-82
2021/10/07 11:26:06;;;;;;;7.60;5.43;;;14.90;99.90;;;;;;5031099;28;20151;-82
2021/10/07 11:28:53;;;;;;;6.75;4.60;;;15.00;99.90;;;;;;5017185;28;20425;-89
2021/10/07 11:31:44;;;;;;;7.43;5.50;;;15.10;99.90;;;;;;5034756;28;20053;-91
2021/10/07 11:34:32;;;;;;;10.30;5.25;;;15.10;99.90;;;;;;5040789;28;20041;-92
2021/10/07 11:37:24;;;;;;;13.35;6.95;;;15.40;99.90;;;;;;5039690;28;20109;-93
2021/10/07 11:40:34;;;;;;;8.82;5.18;;;15.40;99.90;;;;;;5043828;28;20107;-91
2021/10/07 11:43:30;;;;;;;9.45;5.88;;;15.30;99.90;;;;;;5051388;28;20045;-89
2021/10/07 11:46:21;;;;;;;7.72;5.60;;;15.20;99.90;;;;;;5038329;28;20043;-91
2021/10/07 11:49:09;;;;;;;9.95;6.20;;;15.00;99.90;;;;;;5003223;28;20042;-90
2021/10/07 11:51:59;;;;;;;11.00;6.50;;;15.00;99.90;;;;;;5022606;28;20037;-91
2021/10/07 11:54:47;;;;;;;10.90;6.60;;;15.00;99.90;;;;;;5005923;28;20056;-90
2021/10/07 11:57:35;;;;;;;9.88;6.00;;;15.10;99.90;;;;;;5023076;28;20466;-89
2021/10/07 12:00:50;;;;;;;8.32;6.32;;;15.00;99.90;;;;;;5039562;28;20056;-88
2021/10/07 12:03:44;;;;;;;8.38;5.68;;;14.90;99.90;;;;;;5038601;28;20045;-91
2021/10/07 12:06:43;;;;;;;9.82;6.22;;;15.00;99.90;;;;;;5033000;28;20080;-89
2021/10/07 12:09:38;;;;;;;10.85;6.10;;;15.20;99.90;;;;;;5026998;28;20366;-89
2021/10/07 12:12:27;;;;;;;9.13;6.55;;;15.10;99.90;;;;;;4995237;28;20352;-92
2021/10/07 12:15:18;;;;;;;11.85;6.65;;;14.70;99.90;;;;;;5037496;28;20052;-89
2021/10/07 12:18:08;;;;;;;10.20;6.05;;;14.40;99.90;;;;;;5024760;28;20105;-89
2021/10/07 12:21:02;;;;;;;11.18;7.30;;;14.20;99.90;;;;;;5036868;28;20187;-90
2021/10/07 12:24:04;;;;;;;9.68;6.00;;;13.80;99.90;;;;;;5022032;28;20050;-90
2021/10/07 12:27:06;;;;;;;7.90;6.32;;;13.70;99.90;;;;;;5024190;28;20474;-92
2021/10/07 12:30:07;;;;;;;9.98;5.72;;;13.70;99.90;;;;;;5035408;28;20121;-91
2021/10/07 12:33:15;;;;;;;8.85;6.53;;;13.80;99.90;;;;;;5010543;28;20114;-91
2021/10/07 12:36:14;;;;;;;10.35;6.57;;;13.80;99.90;;;;;;5017387;28;20666;-92
2021/10/07 12:39:42;;;;;;;10.35;7.10;;;13.90;99.90;;;;;;5039322;28;20037;-90
2021/10/07 12:42:58;;;;;;;7.78;6.18;;;14.10;99.90;;;;;;5013526;28;20056;-91
2021/10/07 12:46:18;;;;;;;9.05;6.82;;;14.40;99.90;;;;;;5034693;28;20128;-91
2021/10/07 12:49:43;;;;;;;8.73;6.18;;;14.40;99.90;;;;;;4968571;28;20125;-90
2021/10/07 12:53:00;;;;;;;9.95;5.85;;;14.30;99.90;;;;;;4964906;28;20503;-90
2021/10/07 12:56:26;;;;;;;;;;;;;;;;;;;;;
2021/10/07 12:59:21;;;;;;;8.70;6.05;;;15.20;99.90;;;;;;4979509;28;20047;-90
2021/10/07 13:02:31;;;;;;;8.13;5.07;;;15.30;99.90;;;;;;4967057;28;20054;-91
2021/10/07 13:05:30;;;;;;;9.65;4.90;;;15.30;99.90;;;;;;4967049;28;20085;-91
2021/10/07 13:08:36;;;;;;;8.90;5.05;;;15.30;99.90;;;;;;5022725;28;20463;-91
2021/10/07 13:11:48;;;;;;;6.18;3.97;;;15.40;99.90;;;;;;5031568;28;20053;-93
2021/10/07 13:14:41;;;;;;;7.28;4.57;;;15.60;99.90;;;;;;5040257;28;20064;-90
2021/10/07 13:17:36;;;;;;;6.70;4.22;;;15.60;99.90;;;;;;5017146;28;20220;-90
2021/10/07 13:20:36;;;;;;;5.30;3.58;;;15.60;99.90;;;;;;5043150;28;20072;-89
2021/10/07 13:23:52;;;;;;;6.03;3.40;;;15.70;99.90;;;;;;4980930;28;20051;-90
2021/10/07 13:26:48;;;;;;;6.32;3.85;;;15.70;99.90;;;;;;4968739;28;20066;-91
2021/10/07 13:29:52;;;;;;;;;;;15.40;99.90;;;;;;4977694;28;20051;-92
2021/10/07 13:32:53;;;;;;;4.93;3.40;;;15.20;99.90;;;;;;4962076;28;19922;-93
2021/10/07 13:36:07;;;;;;;4.47;3.05;;;14.90;99.90;;;;;;4964902;28;20459;-91
2021/10/07 13:39:23;;;;;;;4.22;3.10;;;14.70;99.90;;;;;;5006647;28;20203;-91
2021/10/07 13:42:12;;;;;;;3.67;3.15;;;14.60;99.90;;;;;;5009216;28;20049;-92
2021/10/07 13:45:01;;;;;;;4.57;3.30;;;14.40;99.90;;;;;;5020362;28;20683;-91
2021/10/07 13:47:52;;;;;;;5.53;3.70;;;14.20;99.90;;;;;;5012341;28;20458;-89
2021/10/07 13:50:42;;;;;;;5.22;3.13;;;14.00;99.90;;;;;;5021084;28;20058;-92
2021/10/07 13:53:29;;;;;;;4.70;3.55;;;13.80;99.90;;;;;;5007245;28;20139;-90
2021/10/07 13:56:25;;;;;;;4.28;3.83;;;13.70;99.90;;;;;;5003228;28;20157;-92
2021/10/07 13:59:14;;;;;;;4.15;3.45;;;13.50;99.90;;;;;;5020164;28;20343;-88
2021/10/07 14:02:02;;;;;;;8.05;3.75;;;13.30;99.90;;;;;;5037008;28;20041;-89
2021/10/07 14:04:51;;;;;;;7.38;3.42;;;13.20;99.90;;;;;;5035188;28;20041;-92
2021/10/07 14:07:39;;;;;;;5.68;3.30;;;13.20;99.90;;;;;;5016078;28;20368;-90
2021/10/07 14:10:29;;;;;;;6.28;3.97;;;13.20;99.90;;;;;;5011372;28;20441;-90
2021/10/07 14:13:17;;;;;;;6.30;3.65;;;13.10;99.90;;;;;;5015947;28;20057;-91
2021/10/07 14:16:06;;;;;;;4.95;3.08;;;13.00;99.90;;;;;;5006438;28;20445;-89
2021/10/07 14:18:56;;;;;;;5.32;3.90;;;13.00;99.90;;;;;;5032876;28;20096;-91
2021/10/07 14:21:44;;;;;;;6.80;4.05;;;13.00;99.90;;;;;;5021478;28;20131;-90
2021/10/07 14:24:32;;;;;;;7.30;4.32;;;12.90;99.90;;;;;;5034513;28;20053;-90
2021/10/07 14:27:24;;;;;;;7.32;4.10;;;12.80;99.90;;;;;;5021040;28;20475;-91
2021/10/07 14:30:15;;;;;;;7.90;4.28;;;12.80;99.90;;;;;;5022107;28;20046;-90
2021/10/07 14:33:04;;;;;;;5.53;4.28;;;12.70;99.90;;;;;;5032872;28;20045;-91
2021/10/07 14:35:58;;;;;;;7.05;4.55;;;12.70;99.90;;;;;;5031363;28;20041;-90
2021/10/07 14:38:45;;;;;;;7.15;4.13;;;12.80;99.90;;;;;;5009557;28;20053;-91
2021/10/07 14:41:35;;;;;;;8.70;4.53;;;12.80;99.90;;;;;;5035978;28;20042;-91
2021/10/07 14:44:25;;;;;;;8.77;3.75;;;12.80;99.90;;;;;;5026020;28;20046;-90
2021/10/07 14:47:14;;;;;;;5.78;3.03;;;13.50;99.90;;;;;;5025021;28;20085;-90
2021/10/07 14:50:06;;;;;;;4.80;3.00;;;14.90;99.90;;;;;;5028791;28;20095;-90
2021/10/07 14:52:54;;;;;;;3.37;3.00;;;16.50;99.90;;;;;;5036805;28;20057;-90
2021/10/07 14:55:41;;;;;;;4.10;2.70;;;18.00;99.90;;;;;;5018245;28;20141;-88
2021/10/07 14:58:28;;;;;;;9.95;3.00;;;18.90;94.80;;;;;;5033646;28;20045;-91
2021/10/07 15:01:18;;;;;;;6.85;3.00;;;19.50;91.10;;;;;;5021084;28;20058;-88
2021/10/07 15:04:07;;;;;;;2.70;2.33;;;19.70;88.10;;;;;;5013962;28;20076;-89
2021/10/07 15:06:55;;;;;;;3.75;2.33;;;19.90;83.00;;;;;;5036662;28;20137;-89
2021/10/07 15:09:42;;;;;;;5.57;2.17;;;19.90;81.90;;;;;;5004887;28;20046;-90
2021/10/07 15:12:31;;;;;;;5.55;2.13;;;20.00;81.50;;;;;;5014056;28;20418;-90
2021/10/07 15:15:26;;;;;;;3.85;2.17;;;20.30;77.80;;;;;;5020275;28;20068;-88
2021/10/07 15:18:20;;;;;;;4.22;2.15;;;19.90;77.80;;;;;;5009720;28;20442;-90
2021/10/07 15:21:24;;;;;;;5.13;2.17;;;19.40;79.80;;;;;;5020285;28;20382;-91
2021/10/07 15:24:16;;;;;;;4.13;2.03;;;18.90;83.90;;;;;;5028228;28;20048;-88
2021/10/07 15:27:04;;;;;;;8.77;2.95;;;19.30;80.20;;;;;;5009267;28;20390;-89
2021/10/07 15:29:57;;;;;;;3.47;2.28;;;19.10;82.50;;;;;;5029915;28;20064;-89
2021/10/07 15:32:45;;;;;;;6.38;2.15;;;18.20;84.30;;;;;;5025596;28;20455;-91
2021/10/07 15:35:45;;;;;;;5.03;2.13;;;17.50;89.20;;;;;;5023492;28;20034;-90
2021/10/07 15:38:38;;;;;;;7.40;2.30;;;16.30;92.20;;;;;;5028968;28;20421;-88
2021/10/07 15:41:28;;;;;;;3.42;1.88;;;15.40;95.80;;;;;;5049388;28;20277;-91
2021/10/07 15:44:16;;;;;;;6.40;1.83;;;14.70;98.30;;;;;;5051591;28;20048;-89
2021/10/07 15:47:06;;;;;;;2.97;1.92;;;14.10;99.90;;;;;;5018110;28;20099;-88
2021/10/07 15:49:54;;;;;;;3.15;1.92;;;13.60;99.90;;;;;;5052281;28;20323;-88
2021/10/07 15:52:42;;;;;;;2.17;1.98;;;13.20;99.90;;;;;;5015883;28;20029;-89
2021/10/07 15:55:35;;;;;;;4.55;2.50;;;13.00;99.90;;;;;;5027201;28;20026;-89